Terminal Aerodrome Forecast
Issued by NWS

Home | Current Version | Previous Version | Graphics & Text | Print | Product List | Glossary On
Versions: 1 2 3 4 5 6 7 8 9 10 11 12 13 14 15 16 17 18
000
FTUS42 KMHX 150500 RRA
TAFOAJ
TAF
KOAJ 150545Z 1506/1606 17012G20KT P6SM VCSH OVC011
     FM151300 19016G24KT P6SM BKN025
     FM151900 20018G28KT P6SM -RA VCTS SCT007 BKN025CB
     FM160000 28014G22KT 4SM -RA SCT007 BKN015
     FM160300 34018G26KT P6SM BKN035
      AMD LTD TO CLD VIS AND WIND=

USA.gov is the U.S. government's official web portal to all federal, state and local government web resources and services.